createdAt,value
2023-11-27T00:01:45.949Z,59.91
2023-11-27T00:06:47.965Z,60.04
2023-11-27T00:11:50.215Z,59.72
2023-11-27T00:16:54.763Z,60.24
2023-11-27T00:21:57.031Z,59.96
2023-11-27T00:26:59.074Z,60.05
2023-11-27T00:32:01.291Z,60.09
2023-11-27T00:37:03.437Z,60.00
2023-11-27T00:42:08.099Z,60.21
2023-11-27T00:47:12.518Z,59.77
2023-11-27T00:52:14.787Z,60.23
2023-11-27T00:57:18.920Z,60.44
2023-11-27T01:02:21.204Z,59.94
2023-11-27T01:07:25.852Z,59.74
2023-11-27T01:12:27.812Z,60.51
2023-11-27T01:17:34.554Z,60.17
2023-11-27T01:22:38.177Z,60.13
2023-11-27T01:27:43.090Z,59.88
2023-11-27T01:32:45.291Z,60.08
2023-11-27T01:37:49.625Z,60.28
2023-11-27T01:42:53.998Z,60.53
2023-11-27T01:47:55.973Z,60.17
2023-11-27T01:52:58.060Z,60.27
2023-11-27T01:58:00.603Z,60.06
2023-11-27T02:03:10.638Z,60.53
2023-11-27T02:08:12.575Z,60.29
2023-11-27T02:13:16.015Z,60.58
2023-11-27T02:18:18.303Z,59.99
2023-11-27T02:23:21.642Z,60.81
2023-11-27T02:28:23.752Z,60.65
2023-11-27T02:33:28.449Z,60.09
2023-11-27T02:38:30.269Z,60.23
2023-11-27T02:43:35.943Z,60.56
2023-11-27T02:48:40.189Z,60.74
2023-11-27T02:53:42.070Z,60.48
2023-11-27T02:58:48.671Z,60.71
2023-11-27T03:03:50.623Z,60.69
2023-11-27T03:08:54.929Z,60.37
2023-11-27T03:13:56.856Z,60.08
2023-11-27T03:18:59.236Z,60.58
2023-11-27T03:24:01.188Z,60.35
2023-11-27T03:29:03.364Z,60.55
2023-11-27T03:34:05.300Z,61.06
2023-11-27T03:39:12.543Z,60.78
2023-11-27T03:44:14.730Z,60.30
2023-11-27T03:49:19.121Z,60.28
2023-11-27T03:54:21.112Z,60.56
2023-11-27T03:59:23.201Z,60.64
2023-11-27T04:04:25.210Z,60.93
2023-11-27T04:09:27.248Z,60.85
2023-11-27T04:14:29.158Z,60.31
2023-11-27T04:19:31.042Z,60.01
2023-11-27T04:24:32.948Z,60.19
2023-11-27T04:29:34.855Z,59.94
2023-11-27T04:34:36.659Z,60.01
2023-11-27T04:39:38.645Z,60.54
2023-11-27T04:44:42.825Z,60.30
2023-11-27T04:49:44.972Z,60.67
2023-11-27T04:54:46.959Z,60.19
2023-11-27T04:59:49.391Z,60.21
2023-11-27T05:04:53.834Z,60.46
2023-11-27T05:09:55.918Z,60.21
2023-11-27T05:14:58.577Z,60.39
2023-11-27T05:20:01.025Z,60.07
2023-11-27T05:25:03.356Z,60.18
2023-11-27T05:30:07.562Z,59.71
2023-11-27T05:35:10.301Z,59.79
2023-11-27T05:40:13.203Z,59.43
2023-11-27T05:45:16.379Z,59.52
2023-11-27T05:50:20.264Z,59.51
2023-11-27T05:55:22.680Z,59.82
2023-11-27T06:00:26.311Z,59.56
2023-11-27T06:05:28.815Z,59.59
2023-11-27T06:10:34.125Z,59.10
2023-11-27T06:15:36.511Z,58.97
2023-11-27T06:20:38.774Z,58.95
2023-11-27T06:25:41.422Z,59.10
2023-11-27T06:30:43.597Z,59.19
2023-11-27T06:35:46.384Z,58.91
2023-11-27T06:40:49.573Z,59.68
2023-11-27T06:45:53.880Z,59.08
2023-11-27T06:50:57.057Z,59.07
2023-11-27T06:55:58.827Z,59.00
2023-11-27T07:01:00.883Z,59.80
2023-11-27T07:06:06.001Z,59.48
2023-11-27T07:11:09.742Z,59.74
2023-11-27T07:16:14.586Z,59.83
2023-11-27T07:21:16.420Z,59.20
2023-11-27T07:26:18.441Z,59.63
2023-11-27T07:31:22.817Z,59.71
2023-11-27T07:36:24.997Z,59.85
2023-11-27T07:41:29.474Z,60.02
2023-11-27T07:46:32.127Z,60.41
2023-11-27T07:51:34.532Z,60.33
2023-11-27T07:56:36.584Z,59.96
2023-11-27T08:01:38.889Z,59.54
2023-11-27T08:06:41.176Z,59.92
2023-11-27T08:11:45.542Z,59.74
2023-11-27T08:16:50.686Z,60.39
2023-11-27T08:21:52.576Z,59.80
2023-11-27T08:26:54.569Z,60.05
2023-11-27T08:31:59.821Z,60.95
2023-11-27T08:37:06.417Z,60.69
2023-11-27T08:42:08.534Z,61.41
2023-11-27T08:47:12.807Z,61.78
2023-11-27T08:52:14.716Z,61.72
2023-11-27T08:57:21.389Z,61.48
2023-11-27T09:02:25.554Z,61.88
2023-11-27T09:07:27.650Z,62.12
2023-11-27T09:12:30.712Z,62.25
2023-11-27T09:17:32.854Z,62.53
2023-11-27T09:22:34.995Z,61.89
2023-11-27T09:27:40.135Z,62.03
2023-11-27T09:32:42.246Z,61.44
2023-11-27T09:37:48.076Z,61.55
2023-11-27T09:42:50.178Z,61.70
2023-11-27T09:47:53.300Z,61.50
2023-11-27T09:52:55.993Z,61.83
2023-11-27T09:57:58.031Z,62.18
2023-11-27T10:03:04.369Z,61.87
2023-11-27T10:08:10.660Z,61.68
2023-11-27T10:13:21.765Z,61.13
2023-11-27T10:18:30.031Z,60.86
2023-11-27T10:23:34.265Z,60.73
2023-11-27T10:28:47.073Z,60.59
2023-11-27T10:33:49.078Z,60.38
2023-11-27T10:39:20.568Z,59.94
2023-11-27T10:44:23.891Z,59.16
2023-11-27T10:49:31.448Z,58.87
2023-11-27T10:54:36.486Z,58.82
2023-11-27T10:59:44.019Z,58.58
2023-11-27T11:04:53.608Z,58.35
2023-11-27T11:09:57.323Z,58.54
2023-11-27T11:15:07.855Z,57.79
2023-11-27T11:20:44.678Z,57.93
2023-11-27T11:26:30.639Z,58.10
2023-11-27T11:31:45.826Z,57.83
2023-11-27T11:36:56.354Z,57.74
2023-11-27T11:42:06.068Z,57.26
2023-11-27T11:47:32.469Z,57.24
2023-11-27T11:52:37.789Z,56.20
2023-11-27T11:57:46.153Z,56.80
2023-11-27T12:02:51.779Z,56.39
2023-11-27T12:07:54.283Z,56.49
2023-11-27T12:12:59.308Z,56.42
2023-11-27T12:18:01.666Z,56.57
2023-11-27T12:23:05.953Z,55.78
2023-11-27T12:28:08.494Z,56.06
2023-11-27T12:33:10.663Z,55.79
2023-11-27T12:38:13.067Z,55.37
2023-11-27T12:43:20.256Z,56.03
2023-11-27T12:48:23.009Z,55.53
2023-11-27T12:53:27.718Z,55.28
2023-11-27T12:58:30.067Z,55.41
2023-11-27T13:03:32.586Z,55.40
2023-11-27T13:08:34.702Z,55.21
2023-11-27T13:13:37.162Z,55.43
2023-11-27T13:18:39.087Z,55.35
2023-11-27T13:23:43.239Z,55.07
2023-11-27T13:28:45.121Z,55.81
2023-11-27T13:33:49.630Z,55.14
2023-11-27T13:38:52.549Z,54.97
2023-11-27T13:43:55.281Z,55.21
2023-11-27T13:48:57.266Z,54.69
2023-11-27T13:53:59.446Z,54.48
2023-11-27T13:59:01.628Z,54.20
2023-11-27T14:04:22.164Z,53.47
2023-11-27T14:09:43.048Z,53.31
2023-11-27T14:14:50.580Z,52.84
2023-11-27T14:20:13.390Z,52.17
2023-11-27T14:25:32.082Z,51.73
2023-11-27T14:30:34.661Z,51.64
2023-11-27T14:35:37.742Z,51.22
2023-11-27T14:40:40.118Z,50.90
2023-11-27T14:45:50.264Z,50.60
2023-11-27T14:50:55.087Z,50.40
2023-11-27T14:55:57.106Z,51.02
2023-11-27T15:01:03.486Z,50.61
2023-11-27T15:06:08.901Z,50.49
2023-11-27T15:11:12.249Z,50.81
2023-11-27T15:16:18.962Z,51.34
2023-11-27T15:21:25.673Z,50.27
2023-11-27T15:26:27.654Z,50.82
2023-11-27T15:31:32.700Z,50.38
2023-11-27T15:36:37.625Z,51.11
2023-11-27T15:41:44.377Z,50.41
2023-11-27T15:46:47.344Z,50.97
2023-11-27T15:51:51.451Z,50.38
2023-11-27T15:56:56.096Z,51.42
2023-11-27T16:07:02.764Z,51.62
2023-11-27T16:12:06.418Z,51.31
2023-11-27T16:17:09.918Z,51.54
2023-11-27T16:22:11.727Z,51.54
2023-11-27T16:27:15.114Z,50.80
2023-11-27T16:32:17.612Z,50.55
2023-11-27T16:37:25.116Z,51.86
2023-11-27T16:42:31.895Z,51.66
2023-11-27T16:47:34.144Z,51.10
2023-11-27T16:52:37.251Z,50.52
2023-11-27T16:57:39.571Z,51.19
2023-11-27T17:02:47.567Z,50.76
2023-11-27T17:07:50.637Z,51.95
2023-11-27T17:12:52.585Z,52.08
2023-11-27T17:17:54.689Z,52.05
2023-11-27T17:23:04.681Z,52.60
2023-11-27T17:28:13.910Z,52.43
2023-11-27T17:33:19.527Z,52.06
2023-11-27T17:38:21.361Z,53.22
2023-11-27T17:43:23.164Z,53.40
2023-11-27T17:48:24.948Z,53.94
2023-11-27T17:53:27.959Z,53.66
2023-11-27T17:58:29.881Z,53.03
2023-11-27T18:03:31.872Z,53.56
2023-11-27T18:08:35.859Z,52.75
2023-11-27T18:13:40.520Z,53.39
2023-11-27T18:18:42.322Z,54.01
2023-11-27T18:23:46.635Z,53.20
2023-11-27T18:28:50.651Z,53.22
2023-11-27T18:33:54.957Z,53.30
2023-11-27T18:38:57.079Z,52.36
2023-11-27T18:44:00.200Z,52.55
2023-11-27T18:49:04.022Z,52.96
2023-11-27T18:54:05.849Z,52.51
2023-11-27T18:59:07.809Z,52.68
2023-11-27T19:04:09.780Z,52.35
2023-11-27T19:09:12.175Z,52.20
2023-11-27T19:14:14.259Z,52.30
2023-11-27T19:19:16.431Z,52.54
2023-11-27T19:24:21.161Z,52.39
2023-11-27T19:29:25.730Z,51.86
2023-11-27T19:34:32.880Z,51.75
2023-11-27T19:39:35.109Z,52.14
2023-11-27T19:44:37.454Z,51.36
2023-11-27T19:49:39.660Z,51.51
2023-11-27T19:54:41.932Z,51.06
2023-11-27T19:59:46.373Z,51.54
2023-11-27T20:04:48.671Z,50.94
2023-11-27T20:09:50.852Z,50.50
2023-11-27T20:14:55.820Z,51.27
2023-11-27T20:19:58.034Z,50.58
2023-11-27T20:25:00.235Z,51.13
2023-11-27T20:30:04.473Z,51.48
2023-11-27T20:35:07.619Z,51.92
2023-11-27T20:40:15.127Z,51.83
2023-11-27T20:45:17.359Z,52.00
2023-11-27T20:50:21.666Z,52.25
2023-11-27T20:55:26.679Z,51.95
2023-11-27T21:00:28.612Z,51.92
2023-11-27T21:05:30.520Z,51.21
2023-11-27T21:10:34.310Z,51.45
2023-11-27T21:15:36.231Z,51.31
2023-11-27T21:20:38.132Z,51.08
2023-11-27T21:25:40.403Z,51.44
2023-11-27T21:30:44.533Z,51.54
2023-11-27T21:35:46.528Z,51.55
2023-11-27T21:40:51.311Z,51.95
2023-11-27T21:45:54.645Z,51.85
2023-11-27T21:50:58.988Z,52.06
2023-11-27T21:56:03.380Z,52.18
2023-11-27T22:01:16.693Z,52.81
2023-11-27T22:06:19.602Z,52.52
2023-11-27T22:11:21.407Z,53.02
2023-11-27T22:16:25.641Z,52.76
2023-11-27T22:21:27.565Z,53.39
2023-11-27T22:26:32.103Z,53.36
2023-11-27T22:31:34.115Z,53.20
2023-11-27T22:36:36.219Z,53.55
2023-11-27T22:41:44.111Z,53.87
2023-11-27T22:46:50.725Z,53.94
2023-11-27T22:51:52.612Z,53.26
2023-11-27T22:56:54.469Z,53.63
2023-11-27T23:01:56.495Z,53.40
2023-11-27T23:06:58.460Z,53.96
2023-11-27T23:12:00.404Z,53.96
2023-11-27T23:17:02.286Z,53.87
2023-11-27T23:22:04.170Z,54.27
2023-11-27T23:27:08.662Z,54.15
2023-11-27T23:32:13.022Z,53.83
2023-11-27T23:37:17.503Z,54.00
2023-11-27T23:42:19.342Z,53.71
2023-11-27T23:47:21.227Z,53.71
2023-11-27T23:52:23.198Z,54.01
2023-11-27T23:57:25.439Z,53.64
